sensor_id;sensor_type;location;lat;lon;timestamp;P1;durP1;ratioP1;P2;durP2;ratioP2
6735;SDS011;3405;50.576;12.364;2023-07-29T00:00:56;3.05;;;2.58;;
6735;SDS011;3405;50.576;12.364;2023-07-29T00:03:22;2.92;;;2.60;;
6735;SDS011;3405;50.576;12.364;2023-07-29T00:05:48;2.28;;;2.08;;
6735;SDS011;3405;50.576;12.364;2023-07-29T00:08:14;4.38;;;2.28;;
6735;SDS011;3405;50.576;12.364;2023-07-29T00:10:40;2.85;;;2.40;;
6735;SDS011;3405;50.576;12.364;2023-07-29T00:13:07;3.38;;;2.55;;
6735;SDS011;3405;50.576;12.364;2023-07-29T00:15:33;1.98;;;1.88;;
6735;SDS011;3405;50.576;12.364;2023-07-29T00:17:59;2.65;;;1.98;;
6735;SDS011;3405;50.576;12.364;2023-07-29T00:20:25;2.50;;;2.30;;
6735;SDS011;3405;50.576;12.364;2023-07-29T00:22:51;1.80;;;1.70;;
6735;SDS011;3405;50.576;12.364;2023-07-29T00:25:20;1.67;;;1.58;;
6735;SDS011;3405;50.576;12.364;2023-07-29T00:27:46;2.60;;;1.65;;
6735;SDS011;3405;50.576;12.364;2023-07-29T00:30:12;3.22;;;1.83;;
6735;SDS011;3405;50.576;12.364;2023-07-29T00:32:38;2.10;;;1.90;;
6735;SDS011;3405;50.576;12.364;2023-07-29T00:35:04;2.17;;;1.75;;
6735;SDS011;3405;50.576;12.364;2023-07-29T00:37:30;4.95;;;1.88;;
6735;SDS011;3405;50.576;12.364;2023-07-29T00:39:56;1.77;;;1.67;;
6735;SDS011;3405;50.576;12.364;2023-07-29T00:42:23;2.00;;;1.63;;
6735;SDS011;3405;50.576;12.364;2023-07-29T00:44:49;1.58;;;1.42;;
6735;SDS011;3405;50.576;12.364;2023-07-29T00:47:15;1.90;;;1.80;;
6735;SDS011;3405;50.576;12.364;2023-07-29T00:49:42;1.92;;;1.63;;
6735;SDS011;3405;50.576;12.364;2023-07-29T00:52:09;1.80;;;1.52;;
6735;SDS011;3405;50.576;12.364;2023-07-29T00:54:37;1.15;;;1.05;;
6735;SDS011;3405;50.576;12.364;2023-07-29T00:57:03;1.00;;;1.00;;
6735;SDS011;3405;50.576;12.364;2023-07-29T00:59:29;1.20;;;1.10;;
6735;SDS011;3405;50.576;12.364;2023-07-29T01:01:56;1.08;;;1.00;;
6735;SDS011;3405;50.576;12.364;2023-07-29T01:04:23;0.77;;;0.77;;
6735;SDS011;3405;50.576;12.364;2023-07-29T01:09:31;0.82;;;0.80;;
6735;SDS011;3405;50.576;12.364;2023-07-29T01:12:12;1.02;;;1.00;;
6735;SDS011;3405;50.576;12.364;2023-07-29T01:14:41;0.98;;;0.98;;
6735;SDS011;3405;50.576;12.364;2023-07-29T01:17:18;1.25;;;1.15;;
6735;SDS011;3405;50.576;12.364;2023-07-29T01:22:16;1.58;;;1.00;;
6735;SDS011;3405;50.576;12.364;2023-07-29T01:24:42;0.70;;;0.70;;
6735;SDS011;3405;50.576;12.364;2023-07-29T01:27:08;0.93;;;0.90;;
6735;SDS011;3405;50.576;12.364;2023-07-29T01:29:34;0.70;;;0.70;;
6735;SDS011;3405;50.576;12.364;2023-07-29T01:32:01;2.40;;;0.90;;
6735;SDS011;3405;50.576;12.364;2023-07-29T01:34:30;0.77;;;0.77;;
6735;SDS011;3405;50.576;12.364;2023-07-29T01:36:57;1.75;;;0.65;;
6735;SDS011;3405;50.576;12.364;2023-07-29T01:39:27;0.75;;;0.70;;
6735;SDS011;3405;50.576;12.364;2023-07-29T01:41:54;1.00;;;0.95;;
6735;SDS011;3405;50.576;12.364;2023-07-29T01:44:20;2.17;;;0.80;;
6735;SDS011;3405;50.576;12.364;2023-07-29T01:46:46;0.80;;;0.60;;
6735;SDS011;3405;50.576;12.364;2023-07-29T01:49:13;0.50;;;0.50;;
6735;SDS011;3405;50.576;12.364;2023-07-29T01:51:38;1.15;;;0.90;;
6735;SDS011;3405;50.576;12.364;2023-07-29T01:54:04;0.60;;;0.60;;
6735;SDS011;3405;50.576;12.364;2023-07-29T01:56:30;0.73;;;0.60;;
6735;SDS011;3405;50.576;12.364;2023-07-29T01:58:56;0.98;;;0.70;;
6735;SDS011;3405;50.576;12.364;2023-07-29T02:01:22;1.00;;;0.73;;
6735;SDS011;3405;50.576;12.364;2023-07-29T02:03:48;0.75;;;0.75;;
6735;SDS011;3405;50.576;12.364;2023-07-29T02:06:19;0.80;;;0.80;;
6735;SDS011;3405;50.576;12.364;2023-07-29T02:08:45;0.77;;;0.77;;
6735;SDS011;3405;50.576;12.364;2023-07-29T02:11:11;2.17;;;0.80;;
6735;SDS011;3405;50.576;12.364;2023-07-29T02:13:37;1.30;;;0.77;;
6735;SDS011;3405;50.576;12.364;2023-07-29T02:16:03;2.05;;;0.77;;
6735;SDS011;3405;50.576;12.364;2023-07-29T02:18:29;0.73;;;0.73;;
6735;SDS011;3405;50.576;12.364;2023-07-29T02:20:55;1.00;;;0.90;;
6735;SDS011;3405;50.576;12.364;2023-07-29T02:23:21;2.95;;;0.68;;
6735;SDS011;3405;50.576;12.364;2023-07-29T02:25:47;1.13;;;1.10;;
6735;SDS011;3405;50.576;12.364;2023-07-29T02:28:13;0.63;;;0.63;;
6735;SDS011;3405;50.576;12.364;2023-07-29T02:30:40;0.98;;;0.90;;
6735;SDS011;3405;50.576;12.364;2023-07-29T02:33:09;1.85;;;0.88;;
6735;SDS011;3405;50.576;12.364;2023-07-29T02:35:35;1.15;;;0.90;;
6735;SDS011;3405;50.576;12.364;2023-07-29T02:38:01;1.80;;;0.80;;
6735;SDS011;3405;50.576;12.364;2023-07-29T02:40:27;0.95;;;0.90;;
6735;SDS011;3405;50.576;12.364;2023-07-29T02:42:54;0.80;;;0.80;;
6735;SDS011;3405;50.576;12.364;2023-07-29T02:45:20;2.33;;;0.90;;
6735;SDS011;3405;50.576;12.364;2023-07-29T02:47:46;0.93;;;0.80;;
6735;SDS011;3405;50.576;12.364;2023-07-29T02:50:12;0.63;;;0.63;;
6735;SDS011;3405;50.576;12.364;2023-07-29T02:52:38;2.30;;;0.77;;
6735;SDS011;3405;50.576;12.364;2023-07-29T02:55:04;0.80;;;0.80;;
6735;SDS011;3405;50.576;12.364;2023-07-29T02:57:30;0.80;;;0.70;;
6735;SDS011;3405;50.576;12.364;2023-07-29T02:59:56;0.68;;;0.68;;
6735;SDS011;3405;50.576;12.364;2023-07-29T03:02:22;3.75;;;0.70;;
6735;SDS011;3405;50.576;12.364;2023-07-29T03:04:48;0.80;;;0.80;;
6735;SDS011;3405;50.576;12.364;2023-07-29T03:07:14;1.00;;;1.00;;
6735;SDS011;3405;50.576;12.364;2023-07-29T03:09:40;1.58;;;0.90;;
6735;SDS011;3405;50.576;12.364;2023-07-29T03:12:07;1.63;;;0.90;;
6735;SDS011;3405;50.576;12.364;2023-07-29T03:14:33;1.25;;;0.90;;
6735;SDS011;3405;50.576;12.364;2023-07-29T03:17:01;1.85;;;0.57;;
6735;SDS011;3405;50.576;12.364;2023-07-29T03:19:29;1.13;;;1.02;;
6735;SDS011;3405;50.576;12.364;2023-07-29T03:21:55;0.90;;;0.90;;
6735;SDS011;3405;50.576;12.364;2023-07-29T03:24:21;0.85;;;0.85;;
6735;SDS011;3405;50.576;12.364;2023-07-29T03:26:47;1.20;;;1.10;;
6735;SDS011;3405;50.576;12.364;2023-07-29T03:29:13;1.42;;;1.17;;
6735;SDS011;3405;50.576;12.364;2023-07-29T03:31:39;1.00;;;1.00;;
6735;SDS011;3405;50.576;12.364;2023-07-29T03:34:05;2.08;;;1.00;;
6735;SDS011;3405;50.576;12.364;2023-07-29T03:36:31;1.10;;;0.90;;
6735;SDS011;3405;50.576;12.364;2023-07-29T03:38:56;1.10;;;0.80;;
6735;SDS011;3405;50.576;12.364;2023-07-29T03:41:23;1.88;;;1.10;;
6735;SDS011;3405;50.576;12.364;2023-07-29T03:43:49;1.65;;;1.15;;
6735;SDS011;3405;50.576;12.364;2023-07-29T03:46:15;1.27;;;1.13;;
6735;SDS011;3405;50.576;12.364;2023-07-29T03:48:44;1.30;;;1.20;;
6735;SDS011;3405;50.576;12.364;2023-07-29T03:51:10;1.20;;;1.10;;
6735;SDS011;3405;50.576;12.364;2023-07-29T03:53:36;1.85;;;1.15;;
6735;SDS011;3405;50.576;12.364;2023-07-29T03:56:02;1.38;;;1.27;;
6735;SDS011;3405;50.576;12.364;2023-07-29T03:58:28;1.13;;;1.02;;
6735;SDS011;3405;50.576;12.364;2023-07-29T04:00:54;1.40;;;1.30;;
6735;SDS011;3405;50.576;12.364;2023-07-29T04:03:20;1.20;;;1.10;;
6735;SDS011;3405;50.576;12.364;2023-07-29T04:05:46;1.25;;;1.20;;
6735;SDS011;3405;50.576;12.364;2023-07-29T04:08:12;1.40;;;1.30;;
6735;SDS011;3405;50.576;12.364;2023-07-29T04:10:38;2.65;;;1.38;;
6735;SDS011;3405;50.576;12.364;2023-07-29T04:13:04;1.40;;;1.30;;
6735;SDS011;3405;50.576;12.364;2023-07-29T04:15:30;2.65;;;1.27;;
6735;SDS011;3405;50.576;12.364;2023-07-29T04:17:56;1.25;;;1.15;;
6735;SDS011;3405;50.576;12.364;2023-07-29T04:20:22;1.20;;;1.10;;
6735;SDS011;3405;50.576;12.364;2023-07-29T04:22:48;2.45;;;1.30;;
6735;SDS011;3405;50.576;12.364;2023-07-29T04:25:14;1.35;;;1.25;;
6735;SDS011;3405;50.576;12.364;2023-07-29T04:27:40;1.40;;;1.30;;
6735;SDS011;3405;50.576;12.364;2023-07-29T04:30:06;1.00;;;1.00;;
6735;SDS011;3405;50.576;12.364;2023-07-29T04:32:32;1.38;;;1.27;;
6735;SDS011;3405;50.576;12.364;2023-07-29T04:34:58;4.53;;;1.50;;
6735;SDS011;3405;50.576;12.364;2023-07-29T04:37:24;2.47;;;1.10;;
6735;SDS011;3405;50.576;12.364;2023-07-29T04:39:50;1.38;;;1.27;;
6735;SDS011;3405;50.576;12.364;2023-07-29T04:42:16;1.65;;;1.30;;
6735;SDS011;3405;50.576;12.364;2023-07-29T04:44:42;1.40;;;1.30;;
6735;SDS011;3405;50.576;12.364;2023-07-29T04:47:08;1.50;;;1.40;;
6735;SDS011;3405;50.576;12.364;2023-07-29T04:49:34;1.63;;;1.52;;
6735;SDS011;3405;50.576;12.364;2023-07-29T04:52:00;1.30;;;1.20;;
6735;SDS011;3405;50.576;12.364;2023-07-29T04:54:26;1.25;;;1.17;;
6735;SDS011;3405;50.576;12.364;2023-07-29T04:56:52;2.20;;;1.40;;
6735;SDS011;3405;50.576;12.364;2023-07-29T04:59:17;1.42;;;1.30;;
6735;SDS011;3405;50.576;12.364;2023-07-29T05:01:43;5.35;;;1.30;;
6735;SDS011;3405;50.576;12.364;2023-07-29T05:04:09;1.42;;;1.33;;
6735;SDS011;3405;50.576;12.364;2023-07-29T05:06:35;3.22;;;1.20;;
6735;SDS011;3405;50.576;12.364;2023-07-29T05:09:17;3.25;;;1.27;;
6735;SDS011;3405;50.576;12.364;2023-07-29T05:11:43;2.55;;;1.30;;
6735;SDS011;3405;50.576;12.364;2023-07-29T05:14:10;1.40;;;1.30;;
6735;SDS011;3405;50.576;12.364;2023-07-29T05:16:36;1.77;;;1.30;;
6735;SDS011;3405;50.576;12.364;2023-07-29T05:19:02;2.33;;;1.10;;
6735;SDS011;3405;50.576;12.364;2023-07-29T05:21:28;1.27;;;1.17;;
6735;SDS011;3405;50.576;12.364;2023-07-29T05:23:54;1.75;;;1.00;;
6735;SDS011;3405;50.576;12.364;2023-07-29T05:26:20;1.83;;;1.20;;
6735;SDS011;3405;50.576;12.364;2023-07-29T05:28:46;1.20;;;1.10;;
6735;SDS011;3405;50.576;12.364;2023-07-29T05:31:12;1.17;;;1.13;;
6735;SDS011;3405;50.576;12.364;2023-07-29T05:33:38;1.08;;;1.08;;
6735;SDS011;3405;50.576;12.364;2023-07-29T05:36:04;2.90;;;1.10;;
6735;SDS011;3405;50.576;12.364;2023-07-29T05:38:30;1.42;;;0.85;;
6735;SDS011;3405;50.576;12.364;2023-07-29T05:40:56;2.22;;;1.10;;
6735;SDS011;3405;50.576;12.364;2023-07-29T05:43:23;1.45;;;0.98;;
6735;SDS011;3405;50.576;12.364;2023-07-29T05:45:49;1.00;;;1.00;;
6735;SDS011;3405;50.576;12.364;2023-07-29T05:48:16;0.98;;;0.98;;
6735;SDS011;3405;50.576;12.364;2023-07-29T05:50:42;1.98;;;1.10;;
6735;SDS011;3405;50.576;12.364;2023-07-29T05:53:08;1.00;;;0.90;;
6735;SDS011;3405;50.576;12.364;2023-07-29T05:55:33;1.52;;;1.42;;
6735;SDS011;3405;50.576;12.364;2023-07-29T05:57:59;1.20;;;1.10;;
6735;SDS011;3405;50.576;12.364;2023-07-29T06:00:25;1.17;;;1.08;;
6735;SDS011;3405;50.576;12.364;2023-07-29T06:02:51;1.42;;;1.30;;
6735;SDS011;3405;50.576;12.364;2023-07-29T06:05:17;1.30;;;1.20;;
6735;SDS011;3405;50.576;12.364;2023-07-29T06:07:43;1.73;;;0.93;;
6735;SDS011;3405;50.576;12.364;2023-07-29T06:10:13;2.85;;;1.05;;
6735;SDS011;3405;50.576;12.364;2023-07-29T06:12:39;2.45;;;1.00;;
6735;SDS011;3405;50.576;12.364;2023-07-29T06:15:05;1.05;;;0.95;;
6735;SDS011;3405;50.576;12.364;2023-07-29T06:17:31;1.10;;;1.00;;
6735;SDS011;3405;50.576;12.364;2023-07-29T06:19:57;0.90;;;0.90;;
6735;SDS011;3405;50.576;12.364;2023-07-29T06:22:23;1.27;;;1.10;;
6735;SDS011;3405;50.576;12.364;2023-07-29T06:24:49;1.20;;;1.10;;
6735;SDS011;3405;50.576;12.364;2023-07-29T06:27:15;1.83;;;0.90;;
6735;SDS011;3405;50.576;12.364;2023-07-29T06:29:40;1.10;;;1.10;;
6735;SDS011;3405;50.576;12.364;2023-07-29T06:32:06;1.30;;;1.08;;
6735;SDS011;3405;50.576;12.364;2023-07-29T06:34:32;1.15;;;1.13;;
6735;SDS011;3405;50.576;12.364;2023-07-29T06:36:58;1.05;;;0.88;;
6735;SDS011;3405;50.576;12.364;2023-07-29T06:39:24;2.45;;;1.27;;
6735;SDS011;3405;50.576;12.364;2023-07-29T06:41:50;1.15;;;1.05;;
6735;SDS011;3405;50.576;12.364;2023-07-29T06:44:16;1.98;;;1.17;;
6735;SDS011;3405;50.576;12.364;2023-07-29T06:46:42;2.40;;;1.10;;
6735;SDS011;3405;50.576;12.364;2023-07-29T06:49:08;1.10;;;1.10;;
6735;SDS011;3405;50.576;12.364;2023-07-29T06:51:34;1.60;;;1.35;;
6735;SDS011;3405;50.576;12.364;2023-07-29T06:54:01;1.30;;;1.10;;
6735;SDS011;3405;50.576;12.364;2023-07-29T06:56:27;1.30;;;1.20;;
6735;SDS011;3405;50.576;12.364;2023-07-29T06:58:53;1.05;;;1.05;;
6735;SDS011;3405;50.576;12.364;2023-07-29T07:01:19;1.10;;;1.10;;
6735;SDS011;3405;50.576;12.364;2023-07-29T07:03:45;1.67;;;1.40;;
6735;SDS011;3405;50.576;12.364;2023-07-29T07:06:10;1.23;;;1.10;;
6735;SDS011;3405;50.576;12.364;2023-07-29T07:08:36;1.50;;;1.13;;
6735;SDS011;3405;50.576;12.364;2023-07-29T07:11:02;1.10;;;1.10;;
6735;SDS011;3405;50.576;12.364;2023-07-29T07:13:28;1.70;;;1.10;;
6735;SDS011;3405;50.576;12.364;2023-07-29T07:15:55;1.50;;;1.08;;
6735;SDS011;3405;50.576;12.364;2023-07-29T07:18:21;2.08;;;1.40;;
6735;SDS011;3405;50.576;12.364;2023-07-29T07:20:50;1.20;;;1.10;;
6735;SDS011;3405;50.576;12.364;2023-07-29T07:23:16;1.40;;;1.30;;
6735;SDS011;3405;50.576;12.364;2023-07-29T07:25:42;1.13;;;1.10;;
6735;SDS011;3405;50.576;12.364;2023-07-29T07:28:08;1.17;;;1.08;;
6735;SDS011;3405;50.576;12.364;2023-07-29T07:30:34;1.30;;;1.20;;
6735;SDS011;3405;50.576;12.364;2023-07-29T07:33:00;1.95;;;1.33;;
6735;SDS011;3405;50.576;12.364;2023-07-29T07:35:27;0.98;;;0.98;;
6735;SDS011;3405;50.576;12.364;2023-07-29T07:37:53;1.63;;;1.20;;
6735;SDS011;3405;50.576;12.364;2023-07-29T07:40:18;1.00;;;1.00;;
6735;SDS011;3405;50.576;12.364;2023-07-29T07:42:44;1.00;;;1.00;;
6735;SDS011;3405;50.576;12.364;2023-07-29T07:45:10;1.30;;;1.20;;
6735;SDS011;3405;50.576;12.364;2023-07-29T07:47:36;1.50;;;1.00;;
6735;SDS011;3405;50.576;12.364;2023-07-29T07:50:02;1.42;;;1.20;;
6735;SDS011;3405;50.576;12.364;2023-07-29T07:52:28;1.42;;;1.10;;
6735;SDS011;3405;50.576;12.364;2023-07-29T07:54:54;1.80;;;1.17;;
6735;SDS011;3405;50.576;12.364;2023-07-29T07:57:21;1.73;;;1.10;;
6735;SDS011;3405;50.576;12.364;2023-07-29T07:59:47;1.90;;;1.02;;
6735;SDS011;3405;50.576;12.364;2023-07-29T08:02:13;1.13;;;1.13;;
6735;SDS011;3405;50.576;12.364;2023-07-29T08:04:39;0.98;;;0.98;;
6735;SDS011;3405;50.576;12.364;2023-07-29T08:07:05;1.20;;;1.00;;
6735;SDS011;3405;50.576;12.364;2023-07-29T08:09:31;1.23;;;1.13;;
6735;SDS011;3405;50.576;12.364;2023-07-29T08:11:57;0.90;;;0.90;;
6735;SDS011;3405;50.576;12.364;2023-07-29T08:14:23;1.20;;;1.10;;
6735;SDS011;3405;50.576;12.364;2023-07-29T08:16:49;0.95;;;0.95;;
6735;SDS011;3405;50.576;12.364;2023-07-29T08:19:15;1.05;;;1.05;;
6735;SDS011;3405;50.576;12.364;2023-07-29T08:21:41;2.80;;;1.00;;
6735;SDS011;3405;50.576;12.364;2023-07-29T08:24:07;0.95;;;0.85;;
6735;SDS011;3405;50.576;12.364;2023-07-29T08:26:33;0.80;;;0.80;;
6735;SDS011;3405;50.576;12.364;2023-07-29T08:28:59;1.00;;;1.00;;
6735;SDS011;3405;50.576;12.364;2023-07-29T08:31:25;1.00;;;1.00;;
6735;SDS011;3405;50.576;12.364;2023-07-29T08:33:51;2.38;;;1.20;;
6735;SDS011;3405;50.576;12.364;2023-07-29T08:36:16;1.83;;;1.08;;
6735;SDS011;3405;50.576;12.364;2023-07-29T08:38:42;1.15;;;1.05;;
6735;SDS011;3405;50.576;12.364;2023-07-29T08:43:43;1.02;;;1.00;;
6735;SDS011;3405;50.576;12.364;2023-07-29T08:46:09;1.10;;;1.00;;
6735;SDS011;3405;50.576;12.364;2023-07-29T08:48:42;1.23;;;1.13;;
6735;SDS011;3405;50.576;12.364;2023-07-29T08:51:09;1.10;;;1.00;;
6735;SDS011;3405;50.576;12.364;2023-07-29T08:53:36;1.23;;;1.10;;
6735;SDS011;3405;50.576;12.364;2023-07-29T08:56:02;1.17;;;1.10;;
6735;SDS011;3405;50.576;12.364;2023-07-29T08:58:28;1.10;;;1.00;;
6735;SDS011;3405;50.576;12.364;2023-07-29T09:00:54;0.88;;;0.88;;
6735;SDS011;3405;50.576;12.364;2023-07-29T09:03:21;0.88;;;0.88;;
6735;SDS011;3405;50.576;12.364;2023-07-29T09:05:47;1.08;;;0.98;;
6735;SDS011;3405;50.576;12.364;2023-07-29T09:08:13;0.80;;;0.80;;
6735;SDS011;3405;50.576;12.364;2023-07-29T09:10:39;2.10;;;0.98;;
6735;SDS011;3405;50.576;12.364;2023-07-29T09:13:05;2.45;;;1.10;;
6735;SDS011;3405;50.576;12.364;2023-07-29T09:15:32;0.80;;;0.80;;
6735;SDS011;3405;50.576;12.364;2023-07-29T09:17:58;0.93;;;0.90;;
6735;SDS011;3405;50.576;12.364;2023-07-29T09:20:27;3.28;;;0.82;;
6735;SDS011;3405;50.576;12.364;2023-07-29T09:22:54;0.85;;;0.85;;
6735;SDS011;3405;50.576;12.364;2023-07-29T09:25:27;2.00;;;0.73;;
6735;SDS011;3405;50.576;12.364;2023-07-29T09:27:58;0.70;;;0.70;;
6735;SDS011;3405;50.576;12.364;2023-07-29T09:30:25;1.10;;;0.98;;
6735;SDS011;3405;50.576;12.364;2023-07-29T09:32:54;0.77;;;0.77;;
6735;SDS011;3405;50.576;12.364;2023-07-29T09:35:21;2.47;;;0.60;;
6735;SDS011;3405;50.576;12.364;2023-07-29T09:37:46;1.27;;;0.73;;
6735;SDS011;3405;50.576;12.364;2023-07-29T09:40:16;1.15;;;0.93;;
6735;SDS011;3405;50.576;12.364;2023-07-29T09:42:52;0.80;;;0.80;;
6735;SDS011;3405;50.576;12.364;2023-07-29T09:45:25;0.77;;;0.75;;
6735;SDS011;3405;50.576;12.364;2023-07-29T09:47:52;0.90;;;0.90;;
6735;SDS011;3405;50.576;12.364;2023-07-29T09:50:18;1.33;;;0.60;;
6735;SDS011;3405;50.576;12.364;2023-07-29T09:52:44;1.42;;;0.65;;
6735;SDS011;3405;50.576;12.364;2023-07-29T09:55:13;0.50;;;0.50;;
6735;SDS011;3405;50.576;12.364;2023-07-29T09:57:42;0.60;;;0.60;;
6735;SDS011;3405;50.576;12.364;2023-07-29T10:00:10;0.60;;;0.60;;
6735;SDS011;3405;50.576;12.364;2023-07-29T10:02:40;1.00;;;0.70;;
6735;SDS011;3405;50.576;12.364;2023-07-29T10:05:07;0.52;;;0.40;;
6735;SDS011;3405;50.576;12.364;2023-07-29T10:07:36;0.40;;;0.40;;
6735;SDS011;3405;50.576;12.364;2023-07-29T10:10:06;0.45;;;0.45;;
6735;SDS011;3405;50.576;12.364;2023-07-29T10:12:33;1.38;;;0.60;;
6735;SDS011;3405;50.576;12.364;2023-07-29T10:15:03;0.52;;;0.50;;
6735;SDS011;3405;50.576;12.364;2023-07-29T10:17:29;1.27;;;0.60;;
6735;SDS011;3405;50.576;12.364;2023-07-29T10:19:56;0.57;;;0.50;;
6735;SDS011;3405;50.576;12.364;2023-07-29T10:22:28;0.80;;;0.60;;
6735;SDS011;3405;50.576;12.364;2023-07-29T10:24:56;0.70;;;0.70;;
6735;SDS011;3405;50.576;12.364;2023-07-29T10:27:25;0.93;;;0.80;;
6735;SDS011;3405;50.576;12.364;2023-07-29T10:29:52;1.00;;;0.65;;
6735;SDS011;3405;50.576;12.364;2023-07-29T10:32:22;1.70;;;0.60;;
6735;SDS011;3405;50.576;12.364;2023-07-29T10:34:50;5.68;;;2.97;;
6735;SDS011;3405;50.576;12.364;2023-07-29T10:37:16;82.05;;;28.67;;
6735;SDS011;3405;50.576;12.364;2023-07-29T10:39:51;75.70;;;30.08;;
6735;SDS011;3405;50.576;12.364;2023-07-29T10:42:17;27.67;;;11.63;;
6735;SDS011;3405;50.576;12.364;2023-07-29T10:44:50;15.85;;;7.90;;
6735;SDS011;3405;50.576;12.364;2023-07-29T10:47:26;7.65;;;3.92;;
6735;SDS011;3405;50.576;12.364;2023-07-29T10:49:53;3.05;;;1.80;;
6735;SDS011;3405;50.576;12.364;2023-07-29T10:54:55;1.92;;;1.10;;
6735;SDS011;3405;50.576;12.364;2023-07-29T10:59:58;1.95;;;1.05;;
6735;SDS011;3405;50.576;12.364;2023-07-29T11:02:32;4.45;;;1.60;;
6735;SDS011;3405;50.576;12.364;2023-07-29T11:04:58;3.05;;;1.50;;
6735;SDS011;3405;50.576;12.364;2023-07-29T11:07:26;14.93;;;4.05;;
6735;SDS011;3405;50.576;12.364;2023-07-29T11:09:53;47.58;;;11.07;;
6735;SDS011;3405;50.576;12.364;2023-07-29T11:15:00;150.27;;;47.35;;
6735;SDS011;3405;50.576;12.364;2023-07-29T11:17:28;138.05;;;51.70;;
6735;SDS011;3405;50.576;12.364;2023-07-29T11:19:55;130.25;;;47.25;;
6735;SDS011;3405;50.576;12.364;2023-07-29T11:22:22;115.95;;;43.00;;
6735;SDS011;3405;50.576;12.364;2023-07-29T11:24:49;103.78;;;39.80;;
6735;SDS011;3405;50.576;12.364;2023-07-29T11:27:15;84.15;;;34.00;;
6735;SDS011;3405;50.576;12.364;2023-07-29T11:29:41;74.47;;;33.63;;
6735;SDS011;3405;50.576;12.364;2023-07-29T11:32:07;78.30;;;31.23;;
6735;SDS011;3405;50.576;12.364;2023-07-29T11:34:34;69.85;;;27.73;;
6735;SDS011;3405;50.576;12.364;2023-07-29T11:37:00;72.57;;;27.35;;
6735;SDS011;3405;50.576;12.364;2023-07-29T11:39:26;61.38;;;23.30;;
6735;SDS011;3405;50.576;12.364;2023-07-29T11:41:52;60.85;;;22.30;;
6735;SDS011;3405;50.576;12.364;2023-07-29T11:44:18;48.17;;;20.52;;
6735;SDS011;3405;50.576;12.364;2023-07-29T11:46:44;46.08;;;19.77;;
6735;SDS011;3405;50.576;12.364;2023-07-29T11:49:10;50.38;;;18.85;;
6735;SDS011;3405;50.576;12.364;2023-07-29T11:51:36;40.13;;;17.42;;
6735;SDS011;3405;50.576;12.364;2023-07-29T11:54:02;39.67;;;17.02;;
6735;SDS011;3405;50.576;12.364;2023-07-29T11:56:29;42.58;;;16.58;;
6735;SDS011;3405;50.576;12.364;2023-07-29T11:58:58;40.33;;;15.70;;
6735;SDS011;3405;50.576;12.364;2023-07-29T12:01:24;39.88;;;16.45;;
6735;SDS011;3405;50.576;12.364;2023-07-29T12:03:50;31.25;;;13.43;;
6735;SDS011;3405;50.576;12.364;2023-07-29T12:06:16;29.17;;;11.98;;
6735;SDS011;3405;50.576;12.364;2023-07-29T12:08:42;24.48;;;9.60;;
6735;SDS011;3405;50.576;12.364;2023-07-29T12:11:08;26.33;;;10.95;;
6735;SDS011;3405;50.576;12.364;2023-07-29T12:13:38;19.02;;;9.00;;
6735;SDS011;3405;50.576;12.364;2023-07-29T12:16:04;19.02;;;9.05;;
6735;SDS011;3405;50.576;12.364;2023-07-29T12:18:30;17.73;;;8.65;;
6735;SDS011;3405;50.576;12.364;2023-07-29T12:20:56;17.80;;;7.55;;
6735;SDS011;3405;50.576;12.364;2023-07-29T12:23:25;23.00;;;9.35;;
6735;SDS011;3405;50.576;12.364;2023-07-29T12:25:57;18.98;;;7.80;;
6735;SDS011;3405;50.576;12.364;2023-07-29T12:28:24;15.98;;;7.22;;
6735;SDS011;3405;50.576;12.364;2023-07-29T12:30:53;20.60;;;7.32;;
6735;SDS011;3405;50.576;12.364;2023-07-29T12:33:32;11.43;;;5.28;;
6735;SDS011;3405;50.576;12.364;2023-07-29T12:35:59;13.38;;;5.70;;
6735;SDS011;3405;50.576;12.364;2023-07-29T12:38:31;10.15;;;5.28;;
6735;SDS011;3405;50.576;12.364;2023-07-29T12:40:57;11.05;;;4.95;;
6735;SDS011;3405;50.576;12.364;2023-07-29T12:43:22;10.45;;;4.88;;
6735;SDS011;3405;50.576;12.364;2023-07-29T12:45:49;7.07;;;3.80;;
6735;SDS011;3405;50.576;12.364;2023-07-29T12:48:15;7.82;;;4.25;;
6735;SDS011;3405;50.576;12.364;2023-07-29T12:50:40;8.48;;;3.88;;
6735;SDS011;3405;50.576;12.364;2023-07-29T12:53:07;8.02;;;3.45;;
6735;SDS011;3405;50.576;12.364;2023-07-29T12:55:35;5.95;;;3.40;;
6735;SDS011;3405;50.576;12.364;2023-07-29T12:58:01;7.07;;;3.40;;
6735;SDS011;3405;50.576;12.364;2023-07-29T13:00:27;7.35;;;2.88;;
6735;SDS011;3405;50.576;12.364;2023-07-29T13:02:53;6.35;;;2.92;;
6735;SDS011;3405;50.576;12.364;2023-07-29T13:05:19;5.50;;;2.88;;
6735;SDS011;3405;50.576;12.364;2023-07-29T13:07:45;4.93;;;2.88;;
6735;SDS011;3405;50.576;12.364;2023-07-29T13:10:11;4.10;;;2.63;;
6735;SDS011;3405;50.576;12.364;2023-07-29T13:12:37;5.25;;;2.35;;
6735;SDS011;3405;50.576;12.364;2023-07-29T13:15:03;3.03;;;2.15;;
6735;SDS011;3405;50.576;12.364;2023-07-29T13:17:29;3.05;;;1.80;;
6735;SDS011;3405;50.576;12.364;2023-07-29T13:19:56;2.53;;;1.77;;
6735;SDS011;3405;50.576;12.364;2023-07-29T13:22:22;2.97;;;1.90;;
6735;SDS011;3405;50.576;12.364;2023-07-29T13:24:48;3.83;;;2.33;;
6735;SDS011;3405;50.576;12.364;2023-07-29T13:27:14;2.47;;;1.88;;
6735;SDS011;3405;50.576;12.364;2023-07-29T13:29:40;2.17;;;1.70;;
6735;SDS011;3405;50.576;12.364;2023-07-29T13:32:06;2.42;;;1.58;;
6735;SDS011;3405;50.576;12.364;2023-07-29T13:34:32;1.38;;;1.25;;
6735;SDS011;3405;50.576;12.364;2023-07-29T13:36:59;2.72;;;1.50;;
6735;SDS011;3405;50.576;12.364;2023-07-29T13:39:25;3.20;;;1.52;;
6735;SDS011;3405;50.576;12.364;2023-07-29T13:41:52;1.40;;;1.30;;
6735;SDS011;3405;50.576;12.364;2023-07-29T13:44:18;1.88;;;1.48;;
6735;SDS011;3405;50.576;12.364;2023-07-29T13:46:44;2.17;;;1.20;;
6735;SDS011;3405;50.576;12.364;2023-07-29T13:49:10;2.33;;;1.30;;
6735;SDS011;3405;50.576;12.364;2023-07-29T13:51:36;1.27;;;1.10;;
6735;SDS011;3405;50.576;12.364;2023-07-29T13:54:02;3.30;;;1.23;;
6735;SDS011;3405;50.576;12.364;2023-07-29T13:56:28;1.30;;;1.20;;
6735;SDS011;3405;50.576;12.364;2023-07-29T13:58:54;1.55;;;1.10;;
6735;SDS011;3405;50.576;12.364;2023-07-29T14:01:20;1.88;;;1.05;;
6735;SDS011;3405;50.576;12.364;2023-07-29T14:03:46;1.33;;;1.20;;
6735;SDS011;3405;50.576;12.364;2023-07-29T14:06:12;1.35;;;1.10;;
6735;SDS011;3405;50.576;12.364;2023-07-29T14:08:37;1.42;;;1.00;;
6735;SDS011;3405;50.576;12.364;2023-07-29T14:11:05;1.17;;;1.00;;
6735;SDS011;3405;50.576;12.364;2023-07-29T14:13:31;1.38;;;1.25;;
6735;SDS011;3405;50.576;12.364;2023-07-29T14:15:59;2.10;;;0.90;;
6735;SDS011;3405;50.576;12.364;2023-07-29T14:18:25;0.95;;;0.90;;
6735;SDS011;3405;50.576;12.364;2023-07-29T14:20:51;1.00;;;0.90;;
6735;SDS011;3405;50.576;12.364;2023-07-29T14:23:17;1.05;;;1.00;;
6735;SDS011;3405;50.576;12.364;2023-07-29T14:25:44;1.23;;;1.00;;
6735;SDS011;3405;50.576;12.364;2023-07-29T14:28:09;1.00;;;0.90;;
6735;SDS011;3405;50.576;12.364;2023-07-29T14:30:35;0.85;;;0.85;;
6735;SDS011;3405;50.576;12.364;2023-07-29T14:33:02;1.13;;;1.00;;
6735;SDS011;3405;50.576;12.364;2023-07-29T14:35:28;0.73;;;0.68;;
6735;SDS011;3405;50.576;12.364;2023-07-29T14:37:55;0.60;;;0.60;;
6735;SDS011;3405;50.576;12.364;2023-07-29T14:40:21;1.17;;;1.08;;
6735;SDS011;3405;50.576;12.364;2023-07-29T14:42:47;1.40;;;0.85;;
6735;SDS011;3405;50.576;12.364;2023-07-29T14:45:12;1.00;;;0.80;;
6735;SDS011;3405;50.576;12.364;2023-07-29T14:47:38;0.90;;;0.90;;
6735;SDS011;3405;50.576;12.364;2023-07-29T14:50:05;1.10;;;0.93;;
6735;SDS011;3405;50.576;12.364;2023-07-29T14:52:31;1.05;;;0.95;;
6735;SDS011;3405;50.576;12.364;2023-07-29T14:54:57;2.58;;;1.08;;
6735;SDS011;3405;50.576;12.364;2023-07-29T14:57:22;0.80;;;0.80;;
6735;SDS011;3405;50.576;12.364;2023-07-29T14:59:48;0.95;;;0.88;;
6735;SDS011;3405;50.576;12.364;2023-07-29T15:02:14;0.63;;;0.63;;
6735;SDS011;3405;50.576;12.364;2023-07-29T15:04:40;1.08;;;1.00;;
6735;SDS011;3405;50.576;12.364;2023-07-29T15:07:06;1.70;;;0.90;;
6735;SDS011;3405;50.576;12.364;2023-07-29T15:09:32;1.05;;;0.90;;